createdAt,value
2017-01-27T00:00:23.941Z,997.65
2017-01-27T00:01:04.500Z,997.63
2017-01-27T00:01:45.227Z,997.57
2017-01-27T00:02:25.879Z,997.63
2017-01-27T00:03:06.530Z,997.7
2017-01-27T00:03:47.165Z,997.72
2017-01-27T00:04:27.897Z,997.68
2017-01-27T00:05:08.544Z,997.61
2017-01-27T00:05:49.169Z,997.7
2017-01-27T00:06:29.817Z,997.66
2017-01-27T00:07:10.456Z,997.62
2017-01-27T00:07:51.215Z,997.59
2017-01-27T00:08:31.858Z,997.61
2017-01-27T00:09:12.490Z,997.59
2017-01-27T00:09:53.129Z,997.57
2017-01-27T00:10:33.893Z,997.58
2017-01-27T00:11:14.544Z,997.55
2017-01-27T00:11:55.254Z,997.57
2017-01-27T00:12:35.899Z,997.57
2017-01-27T00:13:16.619Z,997.59
2017-01-27T00:13:57.273Z,997.56
2017-01-27T00:14:37.911Z,997.53
2017-01-27T00:15:18.569Z,997.52
2017-01-27T00:15:59.216Z,997.55
2017-01-27T00:16:39.949Z,997.48
2017-01-27T00:17:20.582Z,997.41
2017-01-27T00:18:01.232Z,997.34
2017-01-27T00:18:41.872Z,997.37
2017-01-27T00:19:22.507Z,997.37
2017-01-27T00:20:03.161Z,997.31
2017-01-27T00:20:43.830Z,997.31
2017-01-27T00:21:24.475Z,997.32
2017-01-27T00:22:05.120Z,997.3
2017-01-27T00:22:45.758Z,997.32
2017-01-27T00:23:26.406Z,997.3
2017-01-27T00:24:07.050Z,997.33
2017-01-27T00:24:47.691Z,997.32
2017-01-27T00:25:28.356Z,997.25
2017-01-27T00:26:08.990Z,997.27
2017-01-27T00:26:49.689Z,997.21
2017-01-27T00:27:30.323Z,997.23
2017-01-27T00:28:10.984Z,997.28
2017-01-27T00:28:51.625Z,997.26
2017-01-27T00:29:32.256Z,997.32
2017-01-27T00:30:12.909Z,997.3
2017-01-27T00:30:53.669Z,997.28
2017-01-27T00:31:34.341Z,997.36
2017-01-27T00:32:14.974Z,997.29
2017-01-27T00:32:55.611Z,997.35
2017-01-27T00:33:36.329Z,997.29
2017-01-27T00:34:16.961Z,997.28
2017-01-27T00:34:57.663Z,997.27
2017-01-27T00:35:38.292Z,997.35
2017-01-27T00:36:18.925Z,997.28
2017-01-27T00:36:59.566Z,997.31
2017-01-27T00:37:40.213Z,997.28
2017-01-27T00:38:20.848Z,997.26
2017-01-27T00:39:01.499Z,997.3
2017-01-27T00:39:42.138Z,997.31
2017-01-27T00:40:22.768Z,997.41
2017-01-27T00:41:03.463Z,997.45
2017-01-27T00:41:44.106Z,997.27
2017-01-27T00:42:24.742Z,997.43
2017-01-27T00:43:05.392Z,997.39
2017-01-27T00:43:46.034Z,997.32
2017-01-27T00:44:26.672Z,997.39
2017-01-27T00:45:07.318Z,997.3
2017-01-27T00:45:48.032Z,997.36
2017-01-27T00:46:28.756Z,997.34
2017-01-27T00:47:09.308Z,997.36
2017-01-27T00:47:49.945Z,997.39
2017-01-27T00:48:30.576Z,997.43
2017-01-27T00:49:11.223Z,997.33
2017-01-27T00:49:51.872Z,997.4
2017-01-27T00:50:32.500Z,997.34
2017-01-27T00:51:13.209Z,997.27
2017-01-27T00:51:53.840Z,997.34
2017-01-27T00:52:34.481Z,997.31
2017-01-27T00:53:15.113Z,997.29
2017-01-27T00:53:55.748Z,997.25
2017-01-27T00:54:36.390Z,997.29
2017-01-27T00:55:17.017Z,997.29
2017-01-27T00:55:57.653Z,997.2
2017-01-27T00:56:38.302Z,997.32
2017-01-27T00:57:18.931Z,997.35
2017-01-27T00:57:59.559Z,997.28
2017-01-27T00:58:40.202Z,997.29
2017-01-27T00:59:20.837Z,997.26
2017-01-27T01:00:01.473Z,997.3
2017-01-27T01:00:42.129Z,997.32
2017-01-27T01:01:22.850Z,997.24
2017-01-27T01:02:03.495Z,997.2
2017-01-27T01:02:44.119Z,997.21
2017-01-27T01:03:24.748Z,997.26
2017-01-27T01:04:05.370Z,997.2
2017-01-27T01:04:46.006Z,997.22
2017-01-27T01:05:26.654Z,997.15
2017-01-27T01:06:07.280Z,997.2
2017-01-27T01:06:47.936Z,997.3
2017-01-27T01:07:28.574Z,997.2
2017-01-27T01:08:09.201Z,997.21
2017-01-27T01:08:49.826Z,997.24
2017-01-27T01:09:30.481Z,997.23
2017-01-27T01:10:11.110Z,997.23
2017-01-27T01:10:51.744Z,997.26
2017-01-27T01:11:32.425Z,997.26
2017-01-27T01:12:13.135Z,997.19
2017-01-27T01:12:53.858Z,997.2
2017-01-27T01:13:34.509Z,997.17
2017-01-27T01:14:15.137Z,997.17
2017-01-27T01:14:55.772Z,997.18
2017-01-27T01:15:36.405Z,997.21
2017-01-27T01:16:17.033Z,997.25
2017-01-27T01:16:57.662Z,997.19
2017-01-27T01:17:38.293Z,997.15
2017-01-27T01:18:19.007Z,997.13
2017-01-27T01:18:59.654Z,997.13
2017-01-27T01:19:40.277Z,997.1
2017-01-27T01:20:20.933Z,997.16
2017-01-27T01:21:01.572Z,997.13
2017-01-27T01:21:42.216Z,997.03
2017-01-27T01:22:22.903Z,997.1
2017-01-27T01:23:03.545Z,997.07
2017-01-27T01:23:44.189Z,997.18
2017-01-27T01:24:24.811Z,997.1
2017-01-27T01:25:05.430Z,997.11
2017-01-27T01:25:46.061Z,997.1
2017-01-27T01:26:26.712Z,997.1
2017-01-27T01:27:07.358Z,997.06
2017-01-27T01:27:48.077Z,997.13
2017-01-27T01:28:28.695Z,997.1
2017-01-27T01:29:09.338Z,997.09
2017-01-27T01:29:49.975Z,997.07
2017-01-27T01:30:30.671Z,997.03
2017-01-27T01:31:11.316Z,997.04
2017-01-27T01:31:51.960Z,997.04
2017-01-27T01:32:32.592Z,997.07
2017-01-27T01:33:13.240Z,997.04
2017-01-27T01:33:53.884Z,997.04
2017-01-27T01:34:34.522Z,997.06
2017-01-27T01:35:15.163Z,997.04
2017-01-27T01:35:55.863Z,997.1
2017-01-27T01:36:36.489Z,997.09
2017-01-27T01:37:17.113Z,997.06
2017-01-27T01:37:57.740Z,997.01
2017-01-27T01:38:38.451Z,997.03
2017-01-27T01:39:18.995Z,997
2017-01-27T01:39:59.637Z,996.99
2017-01-27T01:40:40.279Z,996.95
2017-01-27T01:41:20.913Z,996.92
2017-01-27T01:42:01.553Z,996.98
2017-01-27T01:42:42.192Z,996.89
2017-01-27T01:43:22.896Z,996.85
2017-01-27T01:44:03.526Z,996.85
2017-01-27T01:44:44.159Z,996.83
2017-01-27T01:45:24.789Z,996.79
2017-01-27T01:46:05.422Z,996.82
2017-01-27T01:46:46.052Z,996.81
2017-01-27T01:47:26.679Z,996.83
2017-01-27T01:48:07.305Z,996.88
2017-01-27T01:48:47.936Z,996.87
2017-01-27T01:49:28.566Z,996.85
2017-01-27T01:50:09.224Z,996.8
2017-01-27T01:50:49.848Z,996.91
2017-01-27T01:53:02.846Z,996.91
2017-01-27T01:53:43.459Z,996.96
2017-01-27T01:54:24.148Z,996.97
2017-01-27T01:55:04.766Z,996.95
2017-01-27T01:55:45.395Z,996.94
2017-01-27T01:56:26.035Z,996.98
2017-01-27T01:57:06.668Z,996.93
2017-01-27T01:57:47.298Z,996.89
2017-01-27T01:58:27.960Z,996.86
2017-01-27T01:59:08.599Z,996.89
2017-01-27T01:59:49.230Z,996.81
2017-01-27T02:00:29.853Z,996.78
2017-01-27T02:01:10.481Z,996.79
2017-01-27T02:01:51.116Z,996.75
2017-01-27T02:02:31.746Z,996.79
2017-01-27T02:03:12.383Z,996.76
2017-01-27T02:03:53.076Z,996.8
2017-01-27T02:04:33.702Z,996.82
2017-01-27T02:05:14.326Z,996.87
2017-01-27T02:05:54.968Z,997.01
2017-01-27T02:06:35.609Z,997
2017-01-27T02:07:16.317Z,996.97
2017-01-27T02:07:57.000Z,996.97
2017-01-27T02:08:37.626Z,997.01
2017-01-27T02:09:18.256Z,997.09
2017-01-27T02:09:58.894Z,997.04
2017-01-27T02:10:39.523Z,997.1
2017-01-27T02:11:20.198Z,997.15
2017-01-27T02:12:00.865Z,997.12
2017-01-27T02:12:41.499Z,997.03
2017-01-27T02:13:22.136Z,997.07
2017-01-27T02:14:02.771Z,997.05
2017-01-27T02:14:43.400Z,997.05
2017-01-27T02:15:24.029Z,996.95
2017-01-27T02:16:04.735Z,997.01
2017-01-27T02:16:45.359Z,996.91
2017-01-27T02:17:25.993Z,997.01
2017-01-27T02:18:06.619Z,997.04
2017-01-27T02:18:47.251Z,996.99
2017-01-27T02:19:27.924Z,997.05
2017-01-27T02:20:08.569Z,997.01
2017-01-27T02:20:49.195Z,996.97
2017-01-27T02:21:29.848Z,996.99
2017-01-27T02:22:10.586Z,996.97
2017-01-27T02:22:51.211Z,996.98
2017-01-27T02:23:31.845Z,996.98
2017-01-27T02:24:12.470Z,997
2017-01-27T02:24:53.098Z,996.99
2017-01-27T02:25:33.720Z,997.04
2017-01-27T02:26:14.353Z,997.04
2017-01-27T02:26:54.973Z,997.08
2017-01-27T02:27:35.592Z,997.05
2017-01-27T02:28:16.217Z,997
2017-01-27T02:28:56.856Z,997.06
2017-01-27T02:29:37.489Z,996.98
2017-01-27T02:30:18.162Z,996.95
2017-01-27T02:30:58.806Z,996.95
2017-01-27T02:31:39.430Z,996.95
2017-01-27T02:32:20.063Z,997.01
2017-01-27T02:33:00.728Z,997.01
2017-01-27T02:33:41.366Z,996.97
2017-01-27T02:34:21.994Z,997.01
2017-01-27T02:35:02.618Z,997
2017-01-27T02:35:43.242Z,996.96
2017-01-27T02:36:23.869Z,997.01
2017-01-27T02:37:04.508Z,996.98
2017-01-27T02:37:45.132Z,996.92
2017-01-27T02:38:25.772Z,996.93
2017-01-27T02:39:06.399Z,996.89
2017-01-27T02:39:47.093Z,996.91
2017-01-27T02:40:27.727Z,996.9
2017-01-27T02:41:08.365Z,996.88
2017-01-27T02:41:49.016Z,996.87
2017-01-27T02:42:29.641Z,996.84
2017-01-27T02:43:10.315Z,996.85
2017-01-27T02:43:50.961Z,996.87
2017-01-27T02:44:31.580Z,996.84
2017-01-27T02:45:12.208Z,996.82
2017-01-27T02:45:52.843Z,996.81
2017-01-27T02:46:33.483Z,996.85
2017-01-27T02:47:14.227Z,996.88
2017-01-27T02:47:54.871Z,996.9
2017-01-27T02:48:35.515Z,996.88
2017-01-27T02:49:16.135Z,996.87
2017-01-27T02:49:56.828Z,996.89
2017-01-27T02:50:37.457Z,996.91
2017-01-27T02:51:18.082Z,996.85
2017-01-27T02:51:58.713Z,996.89
2017-01-27T02:52:39.347Z,996.87
2017-01-27T02:53:20.008Z,996.9
2017-01-27T02:54:00.633Z,996.95
2017-01-27T02:54:41.257Z,996.92
2017-01-27T02:55:21.897Z,996.93
2017-01-27T02:56:02.526Z,996.99
2017-01-27T02:56:43.168Z,996.98
2017-01-27T02:57:23.791Z,997
2017-01-27T02:58:04.481Z,997.04
2017-01-27T02:58:45.127Z,997.02
2017-01-27T02:59:25.767Z,997.06
2017-01-27T03:00:06.394Z,997.12
2017-01-27T03:00:47.022Z,997.12
2017-01-27T03:01:27.649Z,997.11
2017-01-27T03:02:08.278Z,997.1
2017-01-27T03:02:48.937Z,997.13
2017-01-27T03:03:29.566Z,997.05
2017-01-27T03:04:10.212Z,997.07
2017-01-27T03:04:50.832Z,996.97
2017-01-27T03:05:31.460Z,996.97
2017-01-27T03:06:12.079Z,997.02
2017-01-27T03:06:52.759Z,997.11
2017-01-27T03:07:33.471Z,997.26
2017-01-27T03:08:14.098Z,997.36
2017-01-27T03:08:54.734Z,997.24
2017-01-27T03:09:35.360Z,997.56
2017-01-27T03:10:15.988Z,997.81
2017-01-27T03:10:56.701Z,997.9
2017-01-27T03:11:37.332Z,998.08
2017-01-27T03:12:17.959Z,997.64
2017-01-27T03:12:58.595Z,997.74
2017-01-27T03:13:39.219Z,997.66
2017-01-27T03:14:19.849Z,997.68
2017-01-27T03:15:00.489Z,997.67
2017-01-27T03:15:41.122Z,997.64
2017-01-27T03:16:21.758Z,997.61
2017-01-27T03:17:02.387Z,997.58
2017-01-27T03:17:43.014Z,997.53
2017-01-27T03:18:23.635Z,997.53
2017-01-27T03:19:04.298Z,997.49
2017-01-27T03:19:44.934Z,997.55
2017-01-27T03:20:25.572Z,997.49
2017-01-27T03:21:06.200Z,997.52
2017-01-27T03:21:46.896Z,997.46
2017-01-27T03:22:27.532Z,997.47
2017-01-27T03:23:08.160Z,997.39
2017-01-27T03:23:48.819Z,997.42
2017-01-27T03:24:29.462Z,997.44
2017-01-27T03:25:10.093Z,997.35
2017-01-27T03:25:50.713Z,997.37
2017-01-27T03:26:31.348Z,997.34
2017-01-27T03:27:12.086Z,997.37
2017-01-27T03:27:52.714Z,997.36
2017-01-27T03:28:33.344Z,997.41
2017-01-27T03:29:14.032Z,997.4
2017-01-27T03:29:54.661Z,997.49
2017-01-27T03:30:35.281Z,997.47
2017-01-27T03:31:15.920Z,997.54
2017-01-27T03:31:56.546Z,997.46
2017-01-27T03:32:37.174Z,997.44
2017-01-27T03:33:17.808Z,997.51
2017-01-27T03:33:58.424Z,997.49
2017-01-27T03:34:39.159Z,997.47
2017-01-27T03:35:19.787Z,997.45
2017-01-27T03:36:00.425Z,997.44
2017-01-27T03:36:41.043Z,997.36
2017-01-27T03:37:21.669Z,997.39
2017-01-27T03:38:02.315Z,997.36
2017-01-27T03:38:42.953Z,997.36
2017-01-27T03:39:23.594Z,997.38
2017-01-27T03:40:04.258Z,997.33
2017-01-27T03:40:44.848Z,997.32
2017-01-27T03:41:25.521Z,997.36
2017-01-27T03:42:06.166Z,997.35
2017-01-27T03:42:46.796Z,997.36
2017-01-27T03:43:27.437Z,997.34
2017-01-27T03:44:08.078Z,997.33
2017-01-27T03:44:48.717Z,997.32
2017-01-27T03:45:29.363Z,997.31
2017-01-27T03:46:10.010Z,997.31
2017-01-27T03:46:50.720Z,997.24
2017-01-27T03:47:31.363Z,997.23
2017-01-27T03:48:12.016Z,997.21
2017-01-27T03:48:52.654Z,997.25
2017-01-27T03:49:33.382Z,997.19
2017-01-27T03:50:14.011Z,997.2
2017-01-27T03:50:54.659Z,997.24
2017-01-27T03:51:35.287Z,997.26
2017-01-27T03:52:15.923Z,997.25
2017-01-27T03:52:56.559Z,997.29
2017-01-27T03:53:37.185Z,997.23
2017-01-27T03:54:17.820Z,997.21
2017-01-27T03:54:58.451Z,997.24
2017-01-27T03:55:39.086Z,997.22
2017-01-27T03:56:19.716Z,997.26
2017-01-27T03:57:00.421Z,997.22
2017-01-27T03:57:41.049Z,997.2
2017-01-27T03:58:21.698Z,997.28
2017-01-27T03:59:02.345Z,997.27
2017-01-27T03:59:42.969Z,997.29
2017-01-27T04:00:23.610Z,997.3
2017-01-27T04:01:04.260Z,997.28
2017-01-27T04:01:44.942Z,997.29
2017-01-27T04:02:25.568Z,997.3
2017-01-27T04:03:06.199Z,997.34
2017-01-27T04:03:46.822Z,997.24
2017-01-27T04:04:27.451Z,997.24
2017-01-27T04:05:08.076Z,997.17
2017-01-27T04:05:48.763Z,997.19
2017-01-27T04:06:29.407Z,997.21
2017-01-27T04:07:10.046Z,997.3
2017-01-27T04:07:50.686Z,997.31
2017-01-27T04:08:31.331Z,997.37
2017-01-27T04:09:11.960Z,997.38
2017-01-27T04:09:52.638Z,997.39
2017-01-27T04:10:33.297Z,997.37
2017-01-27T04:11:13.972Z,997.31
2017-01-27T04:11:54.610Z,997.27
2017-01-27T04:12:35.244Z,997.31
2017-01-27T04:13:15.872Z,997.32
2017-01-27T04:13:56.574Z,997.3
2017-01-27T04:14:37.217Z,997.31
2017-01-27T04:15:17.875Z,997.27
2017-01-27T04:15:58.514Z,997.24
2017-01-27T04:16:39.177Z,997.16
2017-01-27T04:17:19.809Z,997.11
2017-01-27T04:18:00.433Z,997.13
2017-01-27T04:18:41.062Z,997.08
2017-01-27T04:19:21.763Z,997.12
2017-01-27T04:20:02.385Z,997.13
2017-01-27T04:20:43.015Z,997.18
2017-01-27T04:21:23.723Z,997.16
2017-01-27T04:22:04.440Z,997.18
2017-01-27T04:22:45.058Z,997.19
2017-01-27T04:23:25.676Z,997.22
2017-01-27T04:24:06.312Z,997.22
2017-01-27T04:24:46.953Z,997.18
2017-01-27T04:25:27.583Z,997.19
2017-01-27T04:26:08.208Z,997.18
2017-01-27T04:26:48.837Z,997.18
2017-01-27T04:27:29.475Z,997.17
2017-01-27T04:28:10.103Z,997.14
2017-01-27T04:28:50.749Z,997.16
2017-01-27T04:29:31.377Z,997.19
2017-01-27T04:30:12.000Z,997.14
2017-01-27T04:30:52.698Z,997.11
2017-01-27T04:31:33.360Z,997.11
2017-01-27T04:32:14.009Z,997.1
2017-01-27T04:32:54.634Z,997.14
2017-01-27T04:33:35.287Z,997.11
2017-01-27T04:34:15.907Z,997.13
2017-01-27T04:34:56.537Z,997.14
2017-01-27T04:35:37.168Z,997.11
2017-01-27T04:36:17.805Z,997.18
2017-01-27T04:36:58.473Z,997.13
2017-01-27T04:37:39.126Z,997.14
2017-01-27T04:38:19.752Z,997.11
2017-01-27T04:39:00.379Z,997.15
2017-01-27T04:39:41.030Z,997.15
2017-01-27T04:40:21.663Z,997.16
2017-01-27T04:41:02.328Z,997.15
2017-01-27T04:41:42.949Z,997.17
2017-01-27T04:42:23.582Z,997.25
2017-01-27T04:43:04.218Z,997.27
2017-01-27T04:43:44.846Z,997.21
2017-01-27T04:44:25.474Z,997.29
2017-01-27T04:45:06.097Z,997.27
2017-01-27T04:45:46.778Z,997.3
2017-01-27T04:46:27.415Z,997.31
2017-01-27T04:47:08.106Z,997.25
2017-01-27T04:47:48.737Z,997.29
2017-01-27T04:48:29.372Z,997.3
2017-01-27T04:49:10.007Z,997.37
2017-01-27T04:49:50.638Z,997.36
2017-01-27T04:50:31.270Z,997.36
2017-01-27T04:51:11.973Z,997.42
2017-01-27T04:51:52.615Z,997.36
2017-01-27T04:52:33.254Z,997.31
2017-01-27T04:53:13.877Z,997.4
2017-01-27T04:53:54.571Z,997.49
2017-01-27T04:54:35.209Z,997.46
2017-01-27T04:55:15.853Z,997.48
2017-01-27T04:55:56.487Z,997.47
2017-01-27T04:56:37.111Z,997.49
2017-01-27T04:57:17.740Z,997.52
2017-01-27T04:57:58.390Z,997.48
2017-01-27T04:58:39.039Z,997.49
2017-01-27T04:59:19.688Z,997.48
2017-01-27T05:00:00.315Z,997.46
2017-01-27T05:00:40.954Z,997.49
2017-01-27T05:01:21.576Z,997.46
2017-01-27T05:02:02.212Z,997.41
2017-01-27T05:02:42.851Z,997.44
2017-01-27T05:03:23.539Z,997.39
2017-01-27T05:04:04.170Z,997.45
2017-01-27T05:04:44.799Z,997.44
2017-01-27T05:05:25.428Z,997.44
2017-01-27T05:06:06.069Z,997.45
2017-01-27T05:08:03.939Z,997.46
2017-01-27T05:08:44.562Z,997.46
2017-01-27T05:09:25.197Z,997.48
2017-01-27T05:10:05.827Z,997.49
2017-01-27T05:10:46.463Z,997.54
2017-01-27T05:11:27.094Z,997.52
2017-01-27T05:12:07.726Z,997.57
2017-01-27T05:12:48.462Z,997.57
2017-01-27T05:13:29.093Z,997.55
2017-01-27T05:14:09.726Z,997.54
2017-01-27T05:14:50.363Z,997.52
2017-01-27T05:15:31.035Z,997.57
2017-01-27T05:16:11.681Z,997.55
2017-01-27T05:16:52.314Z,997.58
2017-01-27T05:17:32.934Z,997.6
2017-01-27T05:18:13.565Z,997.57
2017-01-27T05:18:54.199Z,997.6
2017-01-27T05:19:34.840Z,997.54
2017-01-27T05:20:15.470Z,997.54
2017-01-27T05:20:56.113Z,997.56
2017-01-27T05:21:36.746Z,997.58
2017-01-27T05:22:17.377Z,997.56
2017-01-27T05:22:58.000Z,997.53
2017-01-27T05:23:38.644Z,997.52
2017-01-27T05:24:19.277Z,997.52
2017-01-27T05:24:59.966Z,997.52
2017-01-27T05:25:40.611Z,997.57
2017-01-27T05:26:21.215Z,997.62
2017-01-27T05:27:01.859Z,997.63
2017-01-27T05:27:42.489Z,997.66
2017-01-27T05:28:23.193Z,997.66
2017-01-27T05:29:03.818Z,997.66
2017-01-27T05:29:44.440Z,997.7
2017-01-27T05:30:25.073Z,997.72
2017-01-27T05:31:05.702Z,997.67
2017-01-27T05:31:46.332Z,997.72
2017-01-27T05:32:27.075Z,997.71
2017-01-27T05:33:07.691Z,997.74
2017-01-27T05:33:48.343Z,997.72
2017-01-27T05:34:28.969Z,997.7
2017-01-27T05:35:09.600Z,997.74
2017-01-27T05:35:50.221Z,997.72
2017-01-27T05:36:30.856Z,997.75
2017-01-27T05:37:11.481Z,997.72
2017-01-27T05:37:52.118Z,997.72
2017-01-27T05:38:32.755Z,997.68
2017-01-27T05:39:13.379Z,997.75
2017-01-27T05:39:54.027Z,997.75
2017-01-27T05:40:34.646Z,997.8
2017-01-27T05:41:15.383Z,997.76
2017-01-27T05:41:55.946Z,997.82
2017-01-27T05:42:36.591Z,997.8
2017-01-27T05:43:17.220Z,997.78
2017-01-27T05:43:57.863Z,997.83
2017-01-27T05:44:38.498Z,997.78
2017-01-27T05:45:19.158Z,997.78
2017-01-27T05:45:59.795Z,997.83
2017-01-27T05:46:40.463Z,997.84
2017-01-27T05:47:21.093Z,997.85
2017-01-27T05:48:01.722Z,997.84
2017-01-27T05:48:42.372Z,997.87
2017-01-27T05:49:23.004Z,997.93
2017-01-27T05:50:03.718Z,997.96
2017-01-27T05:50:44.365Z,998
2017-01-27T05:51:24.992Z,997.97
2017-01-27T05:52:05.636Z,998.01
2017-01-27T05:52:46.375Z,998.01
2017-01-27T05:53:26.981Z,998
2017-01-27T05:54:07.609Z,997.99
2017-01-27T05:54:48.233Z,998.04
2017-01-27T05:55:28.853Z,998.04
2017-01-27T05:56:09.492Z,998.06
2017-01-27T05:56:50.152Z,998.05
2017-01-27T05:57:30.778Z,998.09
2017-01-27T05:58:11.407Z,998.1
2017-01-27T05:58:52.036Z,998.11
2017-01-27T05:59:32.687Z,998.15
2017-01-27T06:00:13.321Z,998.15
2017-01-27T06:00:53.955Z,998.29
2017-01-27T06:01:34.580Z,998.17
2017-01-27T06:02:15.304Z,998.22
2017-01-27T06:02:55.923Z,998.17
2017-01-27T06:03:36.556Z,998.19
2017-01-27T06:04:17.189Z,998.29
2017-01-27T06:04:57.816Z,998.24
2017-01-27T06:05:38.449Z,998.22
2017-01-27T06:06:19.080Z,998.26
2017-01-27T06:06:59.722Z,998.23
2017-01-27T06:07:40.352Z,998.22
2017-01-27T06:08:21.058Z,998.25
2017-01-27T06:09:01.685Z,998.27
2017-01-27T06:09:42.320Z,998.22
2017-01-27T06:10:22.963Z,998.24
2017-01-27T06:11:03.598Z,998.26
2017-01-27T06:11:44.221Z,998.27
2017-01-27T06:12:24.852Z,998.28
2017-01-27T06:13:05.506Z,998.26
2017-01-27T06:13:46.122Z,998.28
2017-01-27T06:14:26.753Z,998.27
2017-01-27T06:15:07.366Z,998.22
2017-01-27T06:15:48.006Z,998.24
2017-01-27T06:16:28.642Z,998.25
2017-01-27T06:17:09.272Z,998.27
2017-01-27T06:17:49.923Z,998.24
2017-01-27T06:18:30.569Z,998.19
2017-01-27T06:19:11.212Z,998.19
2017-01-27T06:19:51.846Z,998.16
2017-01-27T06:20:32.473Z,998.18
2017-01-27T06:21:13.121Z,998.22
2017-01-27T06:21:53.750Z,998.26
2017-01-27T06:22:34.396Z,998.29
2017-01-27T06:23:15.044Z,998.27
2017-01-27T06:23:55.745Z,998.24
2017-01-27T06:24:36.401Z,998.24
2017-01-27T06:25:17.035Z,998.27
2017-01-27T06:25:57.665Z,998.25
2017-01-27T06:26:38.303Z,998.23
2017-01-27T06:27:18.933Z,998.23
2017-01-27T06:27:59.613Z,998.25
2017-01-27T06:28:40.240Z,998.33
2017-01-27T06:29:20.871Z,998.32
2017-01-27T06:30:01.507Z,998.3
2017-01-27T06:30:42.142Z,998.39
2017-01-27T06:31:22.775Z,998.41
2017-01-27T06:32:03.409Z,998.38
2017-01-27T06:32:44.090Z,998.41
2017-01-27T06:33:24.784Z,998.4
2017-01-27T06:34:05.410Z,998.41
2017-01-27T06:34:46.046Z,998.44
2017-01-27T06:35:26.687Z,998.4
2017-01-27T06:36:07.319Z,998.36
2017-01-27T06:36:47.999Z,998.36
2017-01-27T06:37:28.643Z,998.34
2017-01-27T06:38:09.297Z,998.35
2017-01-27T06:38:50.240Z,998.36
2017-01-27T06:39:31.219Z,998.35
2017-01-27T06:40:12.129Z,998.39
2017-01-27T06:40:53.009Z,998.41
2017-01-27T06:41:33.953Z,998.35
2017-01-27T06:42:14.760Z,998.38
2017-01-27T06:42:55.663Z,998.43
2017-01-27T06:43:36.370Z,998.38
2017-01-27T06:44:17.002Z,998.34
2017-01-27T06:44:57.646Z,998.37
2017-01-27T06:45:38.940Z,998.42
2017-01-27T06:46:19.590Z,998.41
2017-01-27T06:47:00.528Z,998.41
2017-01-27T06:47:41.338Z,998.45
2017-01-27T06:48:22.146Z,998.43
2017-01-27T06:49:03.028Z,998.39
2017-01-27T06:49:43.670Z,998.45
2017-01-27T06:50:24.309Z,998.41
2017-01-27T06:51:05.854Z,998.46
2017-01-27T06:51:46.228Z,998.5
2017-01-27T06:52:26.968Z,998.49
2017-01-27T06:53:07.630Z,998.51
2017-01-27T06:53:48.251Z,998.53
2017-01-27T06:54:28.897Z,998.5
2017-01-27T06:55:09.599Z,998.55
2017-01-27T06:55:50.513Z,998.5
2017-01-27T06:56:31.533Z,998.53
2017-01-27T06:57:12.237Z,998.55
2017-01-27T06:57:52.939Z,998.58
2017-01-27T06:58:33.606Z,998.58
2017-01-27T06:59:14.397Z,998.6
2017-01-27T06:59:54.971Z,998.57
2017-01-27T07:00:35.736Z,998.59
2017-01-27T07:01:16.448Z,998.63
2017-01-27T07:01:57.043Z,998.65
2017-01-27T07:02:37.686Z,998.61
2017-01-27T07:03:18.313Z,998.62
2017-01-27T07:03:58.969Z,998.64
2017-01-27T07:04:39.828Z,998.68
2017-01-27T07:05:20.459Z,998.69
2017-01-27T07:06:01.092Z,998.67
2017-01-27T07:06:41.730Z,998.67
2017-01-27T07:07:22.457Z,998.68
2017-01-27T07:08:03.087Z,998.63
2017-01-27T07:08:43.709Z,998.68
2017-01-27T07:09:24.337Z,998.72
2017-01-27T07:10:04.974Z,998.72
2017-01-27T07:10:45.706Z,998.74
2017-01-27T07:11:26.374Z,998.72
2017-01-27T07:12:07.009Z,998.79
2017-01-27T07:12:47.658Z,998.75
2017-01-27T07:13:28.285Z,998.81
2017-01-27T07:14:08.911Z,998.82
2017-01-27T07:14:49.577Z,998.89
2017-01-27T07:15:30.210Z,998.88
2017-01-27T07:16:10.834Z,998.89
2017-01-27T07:16:51.468Z,998.89
2017-01-27T07:17:32.159Z,998.9
2017-01-27T07:18:12.809Z,998.96
2017-01-27T07:18:53.450Z,998.94
2017-01-27T07:19:34.089Z,998.96
2017-01-27T07:20:14.720Z,998.93
2017-01-27T07:20:55.354Z,998.9
2017-01-27T07:21:36.052Z,998.99
2017-01-27T07:22:16.692Z,998.92
2017-01-27T07:22:57.358Z,998.92
2017-01-27T07:23:37.991Z,999.02
2017-01-27T07:24:18.624Z,998.96
2017-01-27T07:24:59.264Z,998.96
2017-01-27T07:25:39.985Z,998.98
2017-01-27T07:26:20.612Z,999.05
2017-01-27T07:27:01.246Z,998.97
2017-01-27T07:27:41.878Z,998.95
2017-01-27T07:28:22.504Z,999.03
2017-01-27T07:29:03.257Z,999.03
2017-01-27T07:29:43.933Z,998.99
2017-01-27T07:30:24.579Z,999.03
2017-01-27T07:31:05.207Z,999.09
2017-01-27T07:31:45.846Z,999.05
2017-01-27T07:32:26.457Z,999.09
2017-01-27T07:33:07.144Z,999.15
2017-01-27T07:33:47.891Z,999.14
2017-01-27T07:34:28.518Z,999.15
2017-01-27T07:35:09.154Z,999.17
2017-01-27T07:35:49.779Z,999.17
2017-01-27T07:36:30.510Z,999.17
2017-01-27T07:37:11.155Z,999.21
2017-01-27T07:37:51.782Z,999.24
2017-01-27T07:38:32.426Z,999.23
2017-01-27T07:39:13.047Z,999.27
2017-01-27T07:39:53.674Z,999.29
2017-01-27T07:40:34.367Z,999.37
2017-01-27T07:41:15.022Z,999.32
2017-01-27T07:41:55.643Z,999.35
2017-01-27T07:42:36.266Z,999.44
2017-01-27T07:43:16.898Z,999.5
2017-01-27T07:43:57.526Z,999.52
2017-01-27T07:44:38.170Z,999.61
2017-01-27T07:45:18.796Z,999.67
2017-01-27T07:45:59.468Z,999.89
2017-01-27T07:46:40.097Z,999.81
2017-01-27T07:47:20.722Z,999.99
2017-01-27T07:48:01.369Z,1000.39
2017-01-27T07:48:42.008Z,1001.02
2017-01-27T07:49:22.729Z,1000.4
2017-01-27T07:50:03.464Z,1000.76
2017-01-27T07:50:44.094Z,1000.87
2017-01-27T07:51:24.734Z,1000.77
2017-01-27T07:52:05.378Z,1000.51
2017-01-27T07:52:46.096Z,1000.55
2017-01-27T07:53:26.749Z,1000.37
2017-01-27T07:54:07.429Z,1000.54
2017-01-27T07:54:48.056Z,1000.45
2017-01-27T07:55:28.690Z,1000.1
2017-01-27T07:56:09.394Z,1000.31
2017-01-27T07:56:50.013Z,1000.23
2017-01-27T07:57:30.650Z,1000.22
2017-01-27T07:58:11.401Z,1000.13
2017-01-27T07:58:52.051Z,1000.1
2017-01-27T07:59:32.683Z,1000.05
2017-01-27T08:00:13.325Z,1000.01
2017-01-27T08:00:53.958Z,999.98
2017-01-27T08:01:34.594Z,999.99
2017-01-27T08:02:15.283Z,1000.03
2017-01-27T08:02:56.009Z,999.93
2017-01-27T08:03:36.639Z,999.87
2017-01-27T08:04:17.262Z,999.9
2017-01-27T08:04:57.908Z,999.87
2017-01-27T08:05:38.548Z,999.87
2017-01-27T08:06:19.225Z,999.9
2017-01-27T08:06:59.899Z,999.93
2017-01-27T08:07:40.526Z,999.89
2017-01-27T08:08:21.203Z,999.88
2017-01-27T08:09:01.839Z,999.87
2017-01-27T08:09:42.482Z,999.89
2017-01-27T08:10:23.151Z,999.91
2017-01-27T08:11:03.867Z,999.97
2017-01-27T08:11:44.488Z,999.96
2017-01-27T08:12:25.127Z,999.99
2017-01-27T08:13:05.766Z,1000.02
2017-01-27T08:13:46.396Z,1000.08
2017-01-27T08:14:27.106Z,1000.18
2017-01-27T08:15:07.775Z,1000.26
2017-01-27T08:15:48.408Z,1000.36
2017-01-27T08:16:29.055Z,1000.3
2017-01-27T08:17:09.670Z,1000.27
2017-01-27T08:17:50.311Z,1000.25
2017-01-27T08:18:31.479Z,1000.23
2017-01-27T08:19:12.129Z,1000.25
2017-01-27T08:19:52.757Z,1000.22
2017-01-27T08:20:33.391Z,1000.29
2017-01-27T08:21:14.027Z,1000.28
2017-01-27T08:21:54.669Z,1000.23
2017-01-27T08:22:35.365Z,1000.22
2017-01-27T08:23:16.001Z,1000.21
2017-01-27T08:23:56.651Z,1000.19
2017-01-27T08:24:37.278Z,1000.22
2017-01-27T08:25:17.904Z,1000.2
2017-01-27T08:25:58.581Z,1000.13
2017-01-27T08:26:39.213Z,1000.18
2017-01-27T08:27:19.844Z,1000.23
2017-01-27T08:28:00.476Z,1000.22
2017-01-27T08:28:41.181Z,1000.2
2017-01-27T08:29:21.844Z,1000.28
2017-01-27T08:30:02.512Z,1000.32
2017-01-27T08:30:43.163Z,1000.21